createdAt,value
2018-01-03T00:00:17.961Z,99720.86
2018-01-03T00:02:47.458Z,99706.75
2018-01-03T00:05:16.623Z,99698.81
2018-01-03T00:07:45.858Z,99678.29
2018-01-03T00:10:16.375Z,99667.83
2018-01-03T00:12:45.888Z,99664.70
2018-01-03T00:15:14.993Z,99656.78
2018-01-03T00:17:44.111Z,99658.27
2018-01-03T00:20:16.001Z,99647.59
2018-01-03T00:22:45.094Z,99639.36
2018-01-03T00:25:14.178Z,99630.22
2018-01-03T00:27:43.540Z,99626.98
2018-01-03T00:30:14.801Z,99627.53
2018-01-03T00:32:43.909Z,99623.05
2018-01-03T00:35:13.029Z,99613.13
2018-01-03T00:37:42.423Z,99607.83
2018-01-03T00:40:11.616Z,99602.34
2018-01-03T00:42:40.802Z,99582.36
2018-01-03T00:45:10.339Z,99576.19
2018-01-03T00:47:39.458Z,99565.73
2018-01-03T00:50:09.636Z,99573.63
2018-01-03T00:52:38.851Z,99564.28
2018-01-03T00:55:08.261Z,99558.31
2018-01-03T00:57:38.254Z,99549.42
2018-01-03T01:00:11.095Z,99556.14
2018-01-03T01:02:40.240Z,99538.88
2018-01-03T01:05:09.682Z,99542.43
2018-01-03T01:07:38.814Z,99539.50
2018-01-03T01:10:08.069Z,99532.39
2018-01-03T01:12:37.261Z,99526.22
2018-01-03T01:15:06.787Z,99518.83
2018-01-03T01:17:35.906Z,99509.00
2018-01-03T01:20:08.919Z,99486.28
2018-01-03T01:22:38.371Z,99481.05
2018-01-03T01:25:07.497Z,99469.77
2018-01-03T01:27:36.621Z,99461.69
2018-01-03T01:30:09.352Z,99470.33
2018-01-03T01:32:38.585Z,99453.03
2018-01-03T01:35:07.835Z,99462.75
2018-01-03T01:37:37.329Z,99452.16
2018-01-03T01:40:08.435Z,99426.34
2018-01-03T01:42:38.668Z,99411.23
2018-01-03T01:45:07.829Z,99415.17
2018-01-03T01:47:37.149Z,99421.59
2018-01-03T01:50:08.831Z,99418.05
2018-01-03T01:52:38.958Z,99421.17
2018-01-03T01:55:08.078Z,99417.84
2018-01-03T01:57:37.217Z,99414.91
2018-01-03T02:00:08.235Z,99396.98
2018-01-03T02:02:37.385Z,99379.55
2018-01-03T02:05:06.538Z,99362.11
2018-01-03T02:07:51.627Z,99347.74
2018-01-03T02:10:25.156Z,99349.84
2018-01-03T02:12:54.494Z,99342.74
2018-01-03T02:15:23.889Z,99340.81
2018-01-03T02:17:52.983Z,99315.27
2018-01-03T02:20:22.326Z,99302.89
2018-01-03T02:22:51.705Z,99278.59
2018-01-03T02:25:20.917Z,99271.94
2018-01-03T02:27:50.067Z,99255.25
2018-01-03T02:31:22.054Z,99242.36
2018-01-03T02:33:51.157Z,99211.47
2018-01-03T02:36:20.662Z,99205.30
2018-01-03T02:38:49.782Z,99188.79
2018-01-03T02:41:18.888Z,99182.95
2018-01-03T02:43:48.039Z,99177.17
2018-01-03T02:46:20.581Z,99163.63
2018-01-03T02:48:49.679Z,99126.58
2018-01-03T02:51:18.790Z,99105.60
2018-01-03T02:53:47.989Z,99081.69
2018-01-03T02:56:19.290Z,99092.81
2018-01-03T02:58:48.403Z,99086.09
2018-01-03T03:01:17.689Z,99063.32
2018-01-03T03:03:46.923Z,99038.38
2018-01-03T03:06:17.753Z,99019.33
2018-01-03T03:08:46.915Z,98979.61
2018-01-03T03:11:16.030Z,98970.56
2018-01-03T03:13:45.162Z,98942.17
2018-01-03T03:16:17.554Z,98944.13
2018-01-03T03:18:46.654Z,98942.39
2018-01-03T03:21:16.128Z,98931.48
2018-01-03T03:23:45.208Z,98923.48
2018-01-03T03:26:16.188Z,98910.50
2018-01-03T03:28:45.774Z,98864.97
2018-01-03T03:31:15.155Z,98859.20
2018-01-03T03:33:44.238Z,98882.70
2018-01-03T03:36:16.351Z,98848.16
2018-01-03T03:38:46.363Z,98832.84
2018-01-03T03:41:15.732Z,98859.00
2018-01-03T03:43:44.806Z,98818.66
2018-01-03T03:46:15.424Z,98796.69
2018-01-03T03:48:44.485Z,98793.11
2018-01-03T03:51:13.881Z,98798.20
2018-01-03T03:53:43.275Z,98790.45
2018-01-03T03:56:14.415Z,98771.41
2018-01-03T03:58:43.485Z,98747.68
2018-01-03T04:01:12.938Z,98737.98
2018-01-03T04:03:42.000Z,98723.16
2018-01-03T04:06:15.201Z,98693.59
2018-01-03T04:08:44.546Z,98662.77
2018-01-03T04:11:13.618Z,98634.38
2018-01-03T04:13:42.730Z,98629.39
2018-01-03T04:16:13.255Z,98602.05
2018-01-03T04:18:42.412Z,98585.13
2018-01-03T04:21:11.546Z,98590.05
2018-01-03T04:23:40.916Z,98586.05
2018-01-03T04:26:11.173Z,98576.14
2018-01-03T04:28:40.583Z,98589.23
2018-01-03T04:31:09.951Z,98582.22
2018-01-03T04:33:39.010Z,98541.27
2018-01-03T04:36:09.608Z,98546.47
2018-01-03T04:38:38.674Z,98553.18
2018-01-03T04:41:07.754Z,98540.59
2018-01-03T04:43:36.821Z,98478.35
2018-01-03T04:46:08.226Z,98462.41
2018-01-03T04:48:37.609Z,98477.23
2018-01-03T04:51:06.671Z,98432.64
2018-01-03T04:53:35.717Z,98430.41
2018-01-03T04:56:07.959Z,98407.27
2018-01-03T05:01:08.835Z,98422.44
2018-01-03T05:03:38.406Z,98416.49
2018-01-03T05:06:08.299Z,98409.52
2018-01-03T05:08:37.378Z,98366.92
2018-01-03T05:11:06.450Z,98355.44
2018-01-03T05:13:35.533Z,98345.34
2018-01-03T05:16:07.978Z,98304.36
2018-01-03T05:18:37.343Z,98307.74
2018-01-03T05:21:06.491Z,98280.41
2018-01-03T05:23:35.958Z,98265.48
2018-01-03T05:26:07.726Z,98266.05
2018-01-03T05:28:37.142Z,98240.45
2018-01-03T05:31:06.206Z,98245.27
2018-01-03T05:33:35.262Z,98248.81
2018-01-03T05:36:07.040Z,98230.64
2018-01-03T05:38:36.088Z,98178.38
2018-01-03T05:41:05.351Z,98183.66
2018-01-03T05:43:34.938Z,98177.31
2018-01-03T05:46:08.019Z,98159.88
2018-01-03T05:48:37.112Z,98159.47
2018-01-03T05:51:06.195Z,98105.58
2018-01-03T05:53:35.307Z,98102.59
2018-01-03T05:56:06.440Z,98071.81
2018-01-03T05:58:35.531Z,98069.53
2018-01-03T06:01:04.875Z,98061.84
2018-01-03T06:03:34.470Z,98063.14
2018-01-03T06:06:06.455Z,98052.45
2018-01-03T06:10:58.698Z,98018.03
2018-01-03T06:13:28.458Z,98023.33
2018-01-03T06:15:57.544Z,98048.39
2018-01-03T06:18:26.633Z,98021.33
2018-01-03T06:20:56.366Z,98018.92
2018-01-03T06:23:25.814Z,98010.50
2018-01-03T06:25:55.375Z,97981.51
2018-01-03T06:28:24.522Z,97969.19
2018-01-03T06:30:53.909Z,98002.29
2018-01-03T06:33:23.764Z,98254.80
2018-01-03T06:35:52.868Z,98262.34
2018-01-03T06:38:22.647Z,98279.66
2018-01-03T06:40:51.751Z,98315.34
2018-01-03T06:43:20.942Z,98364.18
2018-01-03T06:45:50.114Z,98349.13
2018-01-03T06:48:20.985Z,98346.05
2018-01-03T06:50:50.074Z,98358.16
2018-01-03T06:53:19.342Z,98357.39
2018-01-03T06:55:49.866Z,98334.16
2018-01-03T06:58:19.309Z,98313.95
2018-01-03T07:00:48.403Z,98314.20
2018-01-03T07:03:17.778Z,98295.06
2018-01-03T07:09:18.534Z,98369.28
2018-01-03T07:11:47.611Z,98390.75
2018-01-03T07:14:19.030Z,98393.36
2018-01-03T07:16:48.121Z,98381.52
2018-01-03T07:19:17.183Z,98374.81
2018-01-03T07:21:47.276Z,98399.14
2018-01-03T07:24:16.465Z,98432.30
2018-01-03T07:26:45.880Z,98449.17
2018-01-03T07:29:14.965Z,98433.14
2018-01-03T07:31:44.042Z,98362.03
2018-01-03T07:34:13.340Z,98362.27
2018-01-03T07:36:42.721Z,98350.68
2018-01-03T07:39:11.847Z,98349.84
2018-01-03T07:41:40.958Z,98375.52
2018-01-03T07:44:12.106Z,98397.88
2018-01-03T07:46:41.191Z,98423.66
2018-01-03T07:49:10.304Z,98434.23
2018-01-03T07:51:39.378Z,98405.01
2018-01-03T07:56:48.530Z,98442.76
2018-01-03T07:59:17.639Z,98428.41
2018-01-03T08:01:47.069Z,98386.92
2018-01-03T08:04:16.240Z,98340.30
2018-01-03T08:06:45.346Z,98379.49
2018-01-03T08:09:14.721Z,98382.92
2018-01-03T08:11:44.491Z,98363.71
2018-01-03T08:14:14.251Z,98324.92
2018-01-03T08:16:43.702Z,98309.13
2018-01-03T08:19:12.838Z,98305.14
2018-01-03T08:21:41.920Z,98326.36
2018-01-03T08:24:14.832Z,98336.70
2018-01-03T08:26:44.273Z,98370.19
2018-01-03T08:29:13.367Z,98393.77
2018-01-03T08:31:42.531Z,98389.00
2018-01-03T08:34:12.547Z,98377.80
2018-01-03T08:36:41.991Z,98361.80
2018-01-03T08:39:11.095Z,98357.10
2018-01-03T08:41:40.230Z,98350.78
2018-01-03T08:44:10.324Z,98367.69
2018-01-03T08:46:39.722Z,98360.77
2018-01-03T08:49:08.836Z,98373.79
2018-01-03T08:51:38.060Z,98383.50
2018-01-03T08:54:14.811Z,98416.00
2018-01-03T08:56:43.971Z,98417.23
2018-01-03T08:59:13.208Z,98433.51
2018-01-03T09:01:43.015Z,98463.36
2018-01-03T09:04:17.863Z,98455.59
2018-01-03T09:06:47.025Z,98446.97
2018-01-03T09:09:16.160Z,98478.71
2018-01-03T09:11:45.637Z,98485.33
2018-01-03T09:14:15.265Z,98467.48
2018-01-03T09:16:44.590Z,98448.26
2018-01-03T09:19:13.703Z,98466.39
2018-01-03T09:21:42.967Z,98492.95
2018-01-03T09:24:15.452Z,98488.83
2018-01-03T09:26:45.408Z,98490.33
2018-01-03T09:29:14.811Z,98505.36
2018-01-03T09:31:43.905Z,98503.00
2018-01-03T09:34:13.905Z,98487.59
2018-01-03T09:36:43.498Z,98485.27
2018-01-03T09:39:12.594Z,98481.52
2018-01-03T09:41:42.058Z,98491.73
2018-01-03T09:44:13.082Z,98476.50
2018-01-03T09:46:42.424Z,98488.19
2018-01-03T09:49:11.597Z,98497.52
2018-01-03T09:51:40.689Z,98502.35
2018-01-03T09:54:10.301Z,98510.15
2018-01-03T09:56:40.360Z,98501.38
2018-01-03T09:59:09.541Z,98518.70
2018-01-03T10:01:39.032Z,98526.56
2018-01-03T10:04:08.741Z,98515.83
2018-01-03T10:06:37.922Z,98528.16
2018-01-03T10:09:07.128Z,98529.08
2018-01-03T10:11:37.479Z,98546.97
2018-01-03T10:14:07.667Z,98566.55
2018-01-03T10:16:38.114Z,98591.02
2018-01-03T10:19:07.611Z,98597.46
2018-01-03T10:21:37.787Z,98585.77
2018-01-03T10:24:08.472Z,98573.17
2018-01-03T10:26:37.980Z,98585.48
2018-01-03T10:29:07.130Z,98601.00
2018-01-03T10:31:36.290Z,98597.65
2018-01-03T10:34:09.758Z,98598.02
2018-01-03T10:36:38.868Z,98584.52
2018-01-03T10:39:07.970Z,98595.84
2018-01-03T10:41:37.440Z,98610.82
2018-01-03T10:44:08.314Z,98624.28
2018-01-03T10:46:37.482Z,98616.30
2018-01-03T10:49:06.917Z,98629.80
2018-01-03T10:51:36.062Z,98614.97
2018-01-03T10:54:07.160Z,98617.90
2018-01-03T10:56:36.275Z,98609.48
2018-01-03T10:59:05.668Z,98634.14
2018-01-03T11:01:34.948Z,98610.28
2018-01-03T11:04:05.395Z,98634.23
2018-01-03T11:06:34.499Z,98630.44
2018-01-03T11:09:04.260Z,98645.19
2018-01-03T11:11:33.522Z,98631.01
2018-01-03T11:14:05.668Z,98623.55
2018-01-03T11:16:35.104Z,98626.77
2018-01-03T11:19:04.422Z,98648.34
2018-01-03T11:21:33.533Z,98657.72
2018-01-03T11:24:05.619Z,98660.11
2018-01-03T11:26:35.041Z,98658.41
2018-01-03T11:29:04.471Z,98679.84
2018-01-03T11:31:34.820Z,98695.09
2018-01-03T11:34:04.894Z,98714.87
2018-01-03T11:36:34.928Z,98722.07
2018-01-03T11:39:05.232Z,98738.51
2018-01-03T11:41:35.155Z,98732.50
2018-01-03T11:44:05.482Z,98738.75
2018-01-03T11:46:35.020Z,98746.50
2018-01-03T11:49:04.548Z,98756.98
2018-01-03T11:51:33.645Z,98756.28
2018-01-03T11:54:04.985Z,98750.34
2018-01-03T11:56:34.067Z,98784.99
2018-01-03T11:59:07.157Z,98789.03
2018-01-03T12:01:36.570Z,98797.66
2018-01-03T12:04:06.707Z,98791.95
2018-01-03T12:06:37.399Z,98805.10
2018-01-03T12:09:06.843Z,98816.79
2018-01-03T12:11:35.953Z,98821.62
2018-01-03T12:14:09.035Z,98836.64
2018-01-03T12:16:38.132Z,98826.38
2018-01-03T12:19:07.223Z,98842.64
2018-01-03T12:21:36.640Z,98847.77
2018-01-03T12:24:08.050Z,98841.38
2018-01-03T12:26:37.149Z,98846.09
2018-01-03T12:29:06.541Z,98839.15
2018-01-03T12:31:36.576Z,98860.58
2018-01-03T12:34:08.907Z,98856.64
2018-01-03T12:36:38.023Z,98869.69
2018-01-03T12:39:07.974Z,98869.84
2018-01-03T12:41:38.495Z,98901.91
2018-01-03T12:44:10.737Z,98874.63
2018-01-03T12:46:40.136Z,98895.66
2018-01-03T12:49:09.530Z,98935.61
2018-01-03T12:51:38.634Z,98926.50
2018-01-03T12:54:12.371Z,98926.45
2018-01-03T12:56:41.471Z,98930.77
2018-01-03T12:59:11.031Z,98942.23
2018-01-03T13:01:40.141Z,98938.58
2018-01-03T13:04:10.438Z,98943.17
2018-01-03T13:06:39.555Z,98969.23
2018-01-03T13:09:08.666Z,98979.20
2018-01-03T13:11:37.774Z,98978.72
2018-01-03T13:14:08.605Z,98978.14
2018-01-03T13:16:38.018Z,98950.36
2018-01-03T13:19:07.211Z,98967.57
2018-01-03T13:21:37.743Z,98963.92
2018-01-03T13:24:08.772Z,98965.09
2018-01-03T13:26:39.003Z,98964.20
2018-01-03T13:29:08.126Z,98966.26
2018-01-03T13:31:37.349Z,98991.69
2018-01-03T13:34:07.004Z,99014.12
2018-01-03T13:36:36.149Z,99005.85
2018-01-03T13:39:06.015Z,99018.91
2018-01-03T13:41:35.166Z,99015.47
2018-01-03T13:44:06.107Z,99029.75
2018-01-03T13:46:35.230Z,99029.78
2018-01-03T13:49:04.760Z,99036.73
2018-01-03T13:51:34.059Z,99049.83
2018-01-03T13:54:05.699Z,99066.27
2018-01-03T13:56:34.809Z,99086.92
2018-01-03T13:59:04.587Z,99067.20
2018-01-03T14:01:33.706Z,99073.75
2018-01-03T14:04:05.529Z,99083.00
2018-01-03T14:06:34.655Z,99092.45
2018-01-03T14:09:04.381Z,99111.66
2018-01-03T14:11:33.495Z,99115.87
2018-01-03T14:14:04.494Z,99108.32
2018-01-03T14:16:34.218Z,99106.41
2018-01-03T14:19:04.132Z,99104.80
2018-01-03T14:21:33.243Z,99120.14
2018-01-03T14:24:05.664Z,99142.98
2018-01-03T14:26:36.857Z,99153.69
2018-01-03T14:29:06.256Z,99128.94
2018-01-03T14:31:36.073Z,99116.09
2018-01-03T14:34:10.933Z,99131.27
2018-01-03T14:36:40.057Z,99140.59
2018-01-03T14:39:09.458Z,99140.44
2018-01-03T14:41:38.579Z,99153.55
2018-01-03T14:44:09.251Z,99162.36
2018-01-03T14:46:38.400Z,99157.26
2018-01-03T14:49:08.902Z,99149.88
2018-01-03T14:51:39.055Z,99174.68
2018-01-03T14:56:38.153Z,99175.99
2018-01-03T14:59:07.593Z,99182.30
2018-01-03T15:01:36.830Z,99178.87
2018-01-03T15:04:10.964Z,99193.80
2018-01-03T15:06:40.319Z,99190.36
2018-01-03T15:09:09.774Z,99210.84
2018-01-03T15:11:38.939Z,99214.42
2018-01-03T15:14:09.870Z,99214.90
2018-01-03T15:16:38.979Z,99230.22
2018-01-03T15:19:08.568Z,99219.18
2018-01-03T15:21:38.631Z,99219.16
2018-01-03T15:24:09.221Z,99254.13
2018-01-03T15:26:40.052Z,99214.38
2018-01-03T15:29:09.413Z,99213.01
2018-01-03T15:31:38.611Z,99213.01
2018-01-03T15:34:08.553Z,99221.61
2018-01-03T15:36:38.005Z,99223.27
2018-01-03T15:39:07.165Z,99217.94
2018-01-03T15:41:37.699Z,99234.20
2018-01-03T15:44:07.958Z,99217.55
2018-01-03T15:46:38.262Z,99221.89
2018-01-03T15:49:07.439Z,99222.36
2018-01-03T15:51:37.344Z,99243.36
2018-01-03T15:54:07.655Z,99238.16
2018-01-03T15:56:37.280Z,99240.28
2018-01-03T15:59:06.472Z,99240.95
2018-01-03T16:01:35.610Z,99245.94
2018-01-03T16:04:06.356Z,99247.78
2018-01-03T16:06:37.120Z,99249.26
2018-01-03T16:10:35.822Z,99239.39
2018-01-03T16:13:04.984Z,99241.98
2018-01-03T16:15:34.480Z,99256.80
2018-01-03T16:18:05.461Z,99257.78
2018-01-03T16:21:05.619Z,99257.72
2018-01-03T16:23:35.650Z,99267.30
2018-01-03T16:26:07.712Z,99261.50
2018-01-03T16:28:37.548Z,99271.75
2018-01-03T16:31:06.990Z,99281.12
2018-01-03T16:33:36.206Z,99289.30
2018-01-03T16:36:08.394Z,99280.52
2018-01-03T16:38:37.577Z,99288.83
2018-01-03T16:41:07.024Z,99287.73
2018-01-03T16:43:36.747Z,99282.85
2018-01-03T16:46:13.431Z,99290.52
2018-01-03T16:48:42.573Z,99286.28
2018-01-03T16:51:11.855Z,99291.87
2018-01-03T16:53:41.270Z,99295.52
2018-01-03T16:56:11.246Z,99286.63
2018-01-03T16:58:42.057Z,99298.73
2018-01-03T17:01:11.271Z,99302.66
2018-01-03T17:03:41.112Z,99307.54
2018-01-03T17:06:10.355Z,99318.75
2018-01-03T17:08:39.583Z,99323.31
2018-01-03T17:11:09.032Z,99323.48
2018-01-03T17:13:39.142Z,99328.20
2018-01-03T17:16:12.365Z,99342.31
2018-01-03T17:18:41.575Z,99351.91
2018-01-03T17:21:16.300Z,99378.95
2018-01-03T17:23:45.695Z,99365.03
2018-01-03T17:26:15.436Z,99355.67
2018-01-03T17:28:45.677Z,99365.49
2018-01-03T17:31:14.764Z,99385.91
2018-01-03T17:33:43.872Z,99371.73
2018-01-03T17:36:14.717Z,99367.72
2018-01-03T17:38:43.897Z,99368.58
2018-01-03T17:41:13.276Z,99375.11
2018-01-03T17:43:42.392Z,99369.42
2018-01-03T17:46:12.296Z,99374.48
2018-01-03T17:48:41.402Z,99398.41
2018-01-03T17:51:11.169Z,99396.58
2018-01-03T17:53:41.990Z,99386.97
2018-01-03T17:56:17.401Z,99385.73
2018-01-03T17:58:46.806Z,99376.52
2018-01-03T18:01:16.009Z,99378.83
2018-01-03T18:03:45.567Z,99373.70
2018-01-03T18:06:16.732Z,99363.61
2018-01-03T18:08:45.897Z,99369.16
2018-01-03T18:11:15.895Z,99359.69
2018-01-03T18:13:45.154Z,99365.83
2018-01-03T18:16:15.259Z,99370.83
2018-01-03T18:18:45.309Z,99362.63
2018-01-03T18:21:14.747Z,99356.55
2018-01-03T18:23:43.931Z,99371.84
2018-01-03T18:26:14.289Z,99361.58
2018-01-03T18:28:45.402Z,99367.11
2018-01-03T18:31:14.490Z,99366.77
2018-01-03T18:33:43.991Z,99381.64
2018-01-03T18:36:15.379Z,99368.77
2018-01-03T18:38:44.561Z,99384.02
2018-01-03T18:41:13.687Z,99382.72
2018-01-03T18:43:42.827Z,99394.25
2018-01-03T18:46:12.697Z,99385.30
2018-01-03T18:48:41.803Z,99390.91
2018-01-03T18:51:11.205Z,99398.23
2018-01-03T18:53:40.352Z,99398.70
2018-01-03T18:56:16.456Z,99389.67
2018-01-03T18:58:47.124Z,99376.96
2018-01-03T19:01:16.194Z,99385.42
2018-01-03T19:03:45.916Z,99379.58
2018-01-03T19:06:17.571Z,99373.04
2018-01-03T19:08:46.987Z,99367.09
2018-01-03T19:11:16.158Z,99362.97
2018-01-03T19:13:45.267Z,99352.80
2018-01-03T19:16:16.961Z,99361.95
2018-01-03T19:18:46.446Z,99360.09
2018-01-03T19:21:15.568Z,99348.59
2018-01-03T19:23:44.696Z,99343.72
2018-01-03T19:26:14.255Z,99350.74
2018-01-03T19:28:43.665Z,99358.45
2018-01-03T19:31:12.935Z,99357.41
2018-01-03T19:33:42.029Z,99352.30
2018-01-03T19:36:17.143Z,99357.73
2018-01-03T19:38:46.554Z,99360.33
2018-01-03T19:41:15.710Z,99367.13
2018-01-03T19:43:46.267Z,99357.41
2018-01-03T19:46:20.381Z,99370.03
2018-01-03T19:48:49.499Z,99362.97
2018-01-03T19:51:19.620Z,99371.39
2018-01-03T19:53:49.875Z,99373.75
2018-01-03T19:56:21.762Z,99367.11
2018-01-03T19:58:50.928Z,99372.02
2018-01-03T20:01:20.360Z,99368.09
2018-01-03T20:03:49.498Z,99383.60
2018-01-03T20:06:20.718Z,99393.64
2018-01-03T20:08:50.161Z,99389.13
2018-01-03T20:11:19.576Z,99396.94
2018-01-03T20:13:48.709Z,99401.59
2018-01-03T20:16:20.700Z,99403.75
2018-01-03T20:18:50.195Z,99405.30
2018-01-03T20:21:19.357Z,99419.28
2018-01-03T20:23:49.174Z,99407.72
2018-01-03T20:26:20.750Z,99403.66
2018-01-03T20:28:50.218Z,99410.17
2018-01-03T20:31:19.361Z,99407.94
2018-01-03T20:33:48.475Z,99419.41
2018-01-03T20:36:18.521Z,99411.77
2018-01-03T20:38:48.973Z,99433.30
2018-01-03T20:41:18.069Z,99419.61
2018-01-03T20:43:47.233Z,99413.59
2018-01-03T20:46:17.593Z,99418.96
2018-01-03T20:48:46.890Z,99424.25
2018-01-03T20:51:16.031Z,99415.45
2018-01-03T20:53:45.201Z,99417.47
2018-01-03T20:56:16.211Z,99415.09
2018-01-03T20:58:45.382Z,99426.02
2018-01-03T21:01:14.730Z,99404.60
2018-01-03T21:03:45.071Z,99418.76
2018-01-03T21:06:15.831Z,99405.53
2018-01-03T21:08:44.996Z,99408.01
2018-01-03T21:11:14.433Z,99409.95
2018-01-03T21:13:43.543Z,99406.98
2018-01-03T21:16:18.380Z,99407.05
2018-01-03T21:18:48.391Z,99403.24
2018-01-03T21:21:18.032Z,99409.09
2018-01-03T21:23:47.127Z,99397.50
2018-01-03T21:26:19.781Z,99431.41
2018-01-03T21:28:48.993Z,99406.88
2018-01-03T21:31:18.437Z,99403.52
2018-01-03T21:33:48.305Z,99402.91
2018-01-03T21:36:20.324Z,99403.17
2018-01-03T21:38:50.324Z,99393.51
2018-01-03T21:41:19.777Z,99400.18
2018-01-03T21:43:49.160Z,99392.53
2018-01-03T21:46:20.176Z,99416.63
2018-01-03T21:48:49.334Z,99431.38
2018-01-03T21:51:19.851Z,99421.98
2018-01-03T21:53:49.024Z,99412.66
2018-01-03T21:56:19.503Z,99411.36
2018-01-03T21:58:48.757Z,99404.85
2018-01-03T22:01:18.166Z,99406.09
2018-01-03T22:03:47.362Z,99407.01
2018-01-03T22:06:17.225Z,99414.72
2018-01-03T22:08:46.390Z,99407.79
2018-01-03T22:11:16.106Z,99424.23
2018-01-03T22:13:45.199Z,99410.51
2018-01-03T22:16:15.989Z,99406.78
2018-01-03T22:18:46.053Z,99409.40
2018-01-03T22:21:15.163Z,99406.53
2018-01-03T22:23:45.242Z,99429.97
2018-01-03T22:26:16.938Z,99433.23
2018-01-03T22:28:46.370Z,99426.50
2018-01-03T22:31:15.675Z,99435.04
2018-01-03T22:33:45.554Z,99449.00
2018-01-03T22:36:18.083Z,99445.73
2018-01-03T22:38:47.553Z,99449.84
2018-01-03T22:41:16.729Z,99456.48
2018-01-03T22:43:46.226Z,99447.23
2018-01-03T22:46:15.403Z,99445.92
2018-01-03T22:48:45.739Z,99448.77
2018-01-03T22:51:15.948Z,99451.94
2018-01-03T22:53:45.085Z,99448.50
2018-01-03T22:56:17.673Z,99443.05
2018-01-03T22:58:47.136Z,99441.64
2018-01-03T23:01:16.461Z,99440.69
2018-01-03T23:03:45.728Z,99431.41
2018-01-03T23:06:17.773Z,99433.73
2018-01-03T23:08:47.240Z,99438.38
2018-01-03T23:11:16.365Z,99430.70
2018-01-03T23:13:45.515Z,99436.44
2018-01-03T23:16:15.039Z,99427.95
2018-01-03T23:18:44.492Z,99424.52
2018-01-03T23:21:13.689Z,99430.08
2018-01-03T23:23:43.921Z,99434.36
2018-01-03T23:26:15.156Z,99428.50
2018-01-03T23:28:44.247Z,99426.84
2018-01-03T23:31:13.390Z,99428.47
2018-01-03T23:33:42.805Z,99429.02
2018-01-03T23:36:13.344Z,99427.13
2018-01-03T23:38:43.005Z,99422.55
2018-01-03T23:41:12.423Z,99435.86
2018-01-03T23:43:42.675Z,99436.05
2018-01-03T23:46:15.167Z,99434.06
2018-01-03T23:48:45.929Z,99438.14
2018-01-03T23:51:15.361Z,99441.94
2018-01-03T23:53:45.649Z,99430.79
2018-01-03T23:56:16.795Z,99434.29
2018-01-03T23:58:47.324Z,99425.27
